Time;durP1;ratioP1;P1;durP2;ratioP2;P2;SDS_P1;SDS_P2;PMS_P1;PMS_P2;Temp;Humidity;BMP_temperature;BMP_pressure;BME280_temperature;BME280_humidity;BME280_pressure;Samples;Min_cycle;Max_cycle;Signal;HPM_P1;HPM_P2
2024/03/15 00:01:38;;;;;;;5.00;4.43;;;11.20;99.90;;;;;;5022917;28;20189;-69
2024/03/15 00:04:04;;;;;;;4.77;4.27;;;11.20;99.90;;;;;;5017843;28;20425;-68
2024/03/15 00:06:30;;;;;;;4.23;3.93;;;11.20;99.90;;;;;;5013852;28;20476;-69
2024/03/15 00:08:57;;;;;;;4.07;3.67;;;11.10;99.90;;;;;;5014174;28;20197;-68
2024/03/15 00:11:23;;;;;;;3.90;3.60;;;11.10;99.90;;;;;;5023036;28;20602;-68
2024/03/15 00:13:49;;;;;;;4.20;3.80;;;11.10;99.90;;;;;;5013989;28;20438;-69
2024/03/15 00:16:14;;;;;;;4.50;3.97;;;11.10;99.90;;;;;;5018065;28;20198;-68
2024/03/15 00:18:40;;;;;;;5.13;4.27;;;11.10;99.90;;;;;;5019337;28;20429;-69
2024/03/15 00:21:06;;;;;;;4.37;4.00;;;11.10;99.90;;;;;;5012812;28;20619;-69
2024/03/15 00:23:32;;;;;;;4.27;3.90;;;11.10;99.90;;;;;;5023606;28;20190;-69
2024/03/15 00:25:59;;;;;;;4.47;4.07;;;11.10;99.90;;;;;;5041475;22;20215;-71
2024/03/15 00:28:24;;;;;;;4.50;3.57;;;11.10;99.90;;;;;;5007241;28;20524;-68
2024/03/15 00:30:50;;;;;;;4.70;4.30;;;11.10;99.90;;;;;;5017179;28;20453;-67
2024/03/15 00:33:15;;;;;;;4.37;3.80;;;11.10;99.90;;;;;;5030671;28;20217;-68
2024/03/15 00:35:44;;;;;;;4.37;3.97;;;11.10;99.90;;;;;;5027674;28;20202;-67
2024/03/15 00:38:09;;;;;;;4.47;4.13;;;11.10;99.90;;;;;;5035253;28;20623;-68
2024/03/15 00:40:35;;;;;;;4.50;4.10;;;11.10;99.90;;;;;;5021848;28;20440;-69
2024/03/15 00:43:03;;;;;;;4.83;4.43;;;11.10;99.90;;;;;;5041298;28;20607;-67
2024/03/15 00:45:29;;;;;;;4.37;3.97;;;11.00;99.90;;;;;;5031575;28;20206;-68
2024/03/15 00:47:55;;;;;;;4.40;4.03;;;11.00;99.90;;;;;;5030534;28;20511;-68
2024/03/15 00:50:20;;;;;;;4.17;3.80;;;11.00;99.90;;;;;;5037214;28;20432;-68
2024/03/15 00:52:46;;;;;;;5.43;4.33;;;11.00;99.90;;;;;;5041852;28;20428;-67
2024/03/15 00:55:12;;;;;;;4.47;4.07;;;11.00;99.90;;;;;;5032663;28;20218;-68
2024/03/15 00:57:38;;;;;;;5.07;4.07;;;11.00;99.90;;;;;;5041903;28;20692;-67
2024/03/15 01:00:04;;;;;;;5.67;4.50;;;11.00;99.90;;;;;;5035110;28;20182;-68
2024/03/15 01:02:30;;;;;;;4.80;4.23;;;11.00;99.90;;;;;;5046432;28;20424;-68
2024/03/15 01:04:56;;;;;;;4.53;4.13;;;11.00;99.90;;;;;;5034900;28;20502;-68
2024/03/15 01:07:22;;;;;;;5.47;4.97;;;11.00;99.90;;;;;;5033245;28;20274;-69
2024/03/15 01:09:47;;;;;;;5.80;3.80;;;11.00;99.90;;;;;;5034640;28;20190;-68
2024/03/15 01:12:14;;;;;;;4.80;3.83;;;11.00;99.90;;;;;;5037980;28;20436;-69
2024/03/15 01:14:40;;;;;;;5.27;4.33;;;11.00;99.90;;;;;;5032345;28;20183;-67
2024/03/15 01:17:07;;;;;;;4.23;3.93;;;11.00;99.90;;;;;;5043040;28;20450;-68
2024/03/15 01:19:33;;;;;;;4.77;4.37;;;11.00;99.90;;;;;;5032386;28;20193;-67
2024/03/15 01:22:00;;;;;;;4.67;3.63;;;10.90;99.90;;;;;;5039685;28;20795;-69
2024/03/15 01:24:26;;;;;;;4.27;3.97;;;10.90;99.90;;;;;;5034729;28;20514;-68
2024/03/15 01:26:52;;;;;;;4.13;3.83;;;11.00;99.90;;;;;;5034664;28;20499;-68
2024/03/15 01:29:17;;;;;;;4.50;3.80;;;11.00;99.90;;;;;;5041503;28;20471;-68
2024/03/15 01:31:43;;;;;;;6.40;3.80;;;10.90;99.90;;;;;;5046021;28;20174;-68
2024/03/15 01:34:08;;;;;;;4.07;3.77;;;10.90;99.90;;;;;;5037202;28;20178;-69
2024/03/15 01:36:34;;;;;;;6.40;3.70;;;10.90;99.90;;;;;;5013978;28;20194;-68
2024/03/15 01:38:59;;;;;;;5.27;4.20;;;10.90;99.90;;;;;;5033341;28;20194;-68
2024/03/15 01:41:25;;;;;;;4.47;4.07;;;10.90;99.90;;;;;;5035997;28;20655;-68
2024/03/15 01:43:51;;;;;;;4.70;4.23;;;10.80;99.90;;;;;;5041568;28;20186;-68
2024/03/15 01:46:17;;;;;;;5.20;4.70;;;10.90;99.90;;;;;;5040536;28;21310;-68
2024/03/15 01:48:44;;;;;;;4.43;4.07;;;10.80;99.90;;;;;;5032707;28;20593;-68
2024/03/15 01:51:10;;;;;;;4.00;3.70;;;10.90;99.90;;;;;;5021869;28;20468;-68
2024/03/15 01:53:37;;;;;;;4.47;3.97;;;10.90;99.90;;;;;;5037655;28;20440;-68
2024/03/15 01:56:03;;;;;;;5.60;3.93;;;10.90;99.90;;;;;;5038835;28;20447;-68
2024/03/15 01:58:29;;;;;;;4.10;3.70;;;10.80;99.90;;;;;;5032445;28;20437;-68
2024/03/15 02:00:56;;;;;;;4.03;3.73;;;10.80;99.90;;;;;;5037609;28;20913;-68
2024/03/15 02:03:22;;;;;;;5.23;4.00;;;10.80;99.90;;;;;;5024983;28;20439;-67
2024/03/15 02:05:48;;;;;;;4.00;3.70;;;10.80;99.90;;;;;;5036419;28;20472;-68
2024/03/15 02:08:18;;;;;;;4.03;3.73;;;10.70;99.90;;;;;;5023372;28;20442;-68
2024/03/15 02:10:44;;;;;;;4.17;3.87;;;10.70;99.90;;;;;;5041214;28;20181;-68
2024/03/15 02:13:10;;;;;;;4.30;3.90;;;10.70;99.90;;;;;;5042969;28;20929;-67
2024/03/15 02:15:36;;;;;;;5.10;3.80;;;10.70;99.90;;;;;;5038536;28;20541;-68
2024/03/15 02:18:02;;;;;;;3.80;3.37;;;10.60;99.90;;;;;;5043278;28;20756;-67
2024/03/15 02:20:27;;;;;;;4.60;4.20;;;10.60;99.90;;;;;;5033684;28;20952;-68
2024/03/15 02:22:53;;;;;;;3.87;3.40;;;10.60;99.90;;;;;;5032508;28;20224;-68
2024/03/15 02:25:19;;;;;;;3.80;3.50;;;10.50;99.90;;;;;;5045267;28;20198;-68
2024/03/15 02:27:44;;;;;;;3.90;3.10;;;10.50;99.90;;;;;;5026316;28;20186;-67
2024/03/15 02:30:11;;;;;;;3.67;3.37;;;10.50;99.90;;;;;;5036288;28;20170;-68
2024/03/15 02:32:38;;;;;;;3.67;3.13;;;10.50;99.90;;;;;;5037218;28;20717;-69
2024/03/15 02:35:06;;;;;;;3.90;3.60;;;10.50;99.90;;;;;;5042568;28;20423;-68
2024/03/15 02:37:32;;;;;;;3.70;3.37;;;10.50;99.90;;;;;;5030633;28;20439;-68
2024/03/15 02:39:58;;;;;;;3.93;3.20;;;10.50;99.90;;;;;;5033275;28;20512;-68
2024/03/15 02:42:24;;;;;;;6.10;2.97;;;10.50;99.90;;;;;;5032320;28;20527;-67
2024/03/15 02:44:49;;;;;;;3.43;2.93;;;10.50;99.90;;;;;;5040743;28;20287;-68
2024/03/15 02:47:15;;;;;;;4.00;3.70;;;10.60;99.90;;;;;;5008115;28;20191;-68
2024/03/15 02:49:40;;;;;;;3.93;3.50;;;10.60;99.90;;;;;;5026222;28;20181;-67
2024/03/15 02:52:06;;;;;;;3.70;3.40;;;10.60;99.90;;;;;;5027381;28;20755;-68
2024/03/15 02:54:32;;;;;;;3.73;3.43;;;10.60;99.90;;;;;;5033128;28;20557;-67
2024/03/15 02:56:58;;;;;;;3.70;3.40;;;10.60;99.90;;;;;;5033807;28;20452;-68
2024/03/15 02:59:26;;;;;;;3.47;3.17;;;10.60;99.90;;;;;;5036267;28;20842;-68
2024/03/15 03:01:52;;;;;;;3.57;3.27;;;10.50;99.90;;;;;;5032729;28;20174;-67
2024/03/15 03:04:20;;;;;;;6.17;3.83;;;10.60;99.90;;;;;;5035415;28;20436;-67
2024/03/15 03:06:46;;;;;;;3.97;3.23;;;10.60;99.90;;;;;;5031278;28;20295;-68
2024/03/15 03:09:17;;;;;;;3.60;3.37;;;10.60;99.90;;;;;;5032111;28;20843;-68
2024/03/15 03:11:42;;;;;;;4.37;4.07;;;10.50;99.90;;;;;;5032912;28;20256;-67
2024/03/15 03:14:09;;;;;;;3.90;3.60;;;10.60;99.90;;;;;;5041580;28;20539;-67
2024/03/15 03:16:35;;;;;;;4.00;3.40;;;10.60;99.90;;;;;;5032947;28;20194;-67
2024/03/15 03:19:01;;;;;;;4.13;3.73;;;10.50;99.90;;;;;;5029592;28;20439;-68
2024/03/15 03:21:27;;;;;;;3.77;3.47;;;10.50;99.90;;;;;;5009357;28;20266;-68
2024/03/15 03:23:56;;;;;;;3.93;3.63;;;10.50;99.90;;;;;;5033075;28;20535;-68
2024/03/15 03:26:25;;;;;;;3.80;3.10;;;10.50;99.90;;;;;;5039944;28;20497;-68
2024/03/15 03:28:50;;;;;;;4.40;4.00;;;10.40;99.90;;;;;;5035536;28;20823;-68
2024/03/15 03:31:16;;;;;;;4.17;3.77;;;10.40;99.90;;;;;;5039837;28;20435;-69
2024/03/15 03:33:42;;;;;;;4.23;3.47;;;10.40;99.90;;;;;;5038432;28;20190;-67
2024/03/15 03:36:07;;;;;;;5.77;3.10;;;10.30;99.90;;;;;;5033019;28;20206;-69
2024/03/15 03:38:33;;;;;;;7.00;3.57;;;10.30;99.90;;;;;;5035478;28;20247;-68
2024/03/15 03:40:59;;;;;;;4.73;3.73;;;10.30;99.90;;;;;;5040280;28;20613;-68
2024/03/15 03:43:24;;;;;;;3.67;3.40;;;10.20;99.90;;;;;;5030414;28;20209;-68
2024/03/15 03:45:50;;;;;;;3.60;3.30;;;10.20;99.90;;;;;;5029234;28;20202;-68
2024/03/15 03:48:16;;;;;;;4.20;3.50;;;10.20;99.90;;;;;;5031337;28;20253;-69
2024/03/15 03:50:44;;;;;;;5.37;3.10;;;10.20;99.90;;;;;;5031645;28;20424;-67
2024/03/15 03:53:10;;;;;;;3.67;3.03;;;10.20;99.90;;;;;;5016519;28;20197;-67
2024/03/15 03:55:40;;;;;;;4.13;3.73;;;10.20;99.90;;;;;;5033768;28;20453;-68
2024/03/15 03:58:06;;;;;;;3.33;2.93;;;10.20;99.90;;;;;;5040657;28;20552;-68
2024/03/15 04:00:34;;;;;;;4.03;3.10;;;10.20;99.90;;;;;;5033710;28;20425;-68
2024/03/15 04:03:02;;;;;;;2.47;2.37;;;10.30;99.90;;;;;;5046926;28;20455;-68
2024/03/15 04:05:28;;;;;;;4.37;2.80;;;10.30;99.90;;;;;;5020816;28;20464;-68
2024/03/15 04:07:55;;;;;;;3.30;3.00;;;10.30;99.90;;;;;;5027899;28;20815;-68
2024/03/15 04:10:21;;;;;;;4.00;3.13;;;10.20;99.90;;;;;;5030079;28;20209;-68
2024/03/15 04:12:46;;;;;;;8.03;3.03;;;10.30;99.90;;;;;;5031331;28;20436;-68
2024/03/15 04:15:14;;;;;;;3.17;2.87;;;10.20;99.90;;;;;;5039080;28;20437;-70
2024/03/15 04:17:41;;;;;;;5.40;3.00;;;10.20;99.90;;;;;;5038634;28;20619;-68
2024/03/15 04:20:16;;;;;;;3.50;3.17;;;10.20;99.90;;;;;;5031383;28;20497;-67
2024/03/15 04:22:45;;;;;;;4.37;2.93;;;10.20;99.90;;;;;;5032184;28;20848;-68
2024/03/15 04:25:11;;;;;;;3.53;2.77;;;10.20;99.90;;;;;;5022442;28;20476;-68
2024/03/15 04:27:37;;;;;;;3.17;2.90;;;10.20;99.90;;;;;;5035878;28;20945;-69
2024/03/15 04:30:13;;;;;;;3.20;2.90;;;10.20;99.90;;;;;;5040754;28;20188;-67
2024/03/15 04:32:46;;;;;;;3.27;2.90;;;10.20;99.90;;;;;;5036791;28;20182;-68
2024/03/15 04:35:13;;;;;;;5.70;3.53;;;10.20;99.90;;;;;;5043708;28;20419;-68
2024/03/15 04:37:38;;;;;;;3.73;2.97;;;10.20;99.90;;;;;;5032564;28;20436;-68
2024/03/15 04:40:08;;;;;;;3.83;3.20;;;10.20;99.90;;;;;;5044677;28;20526;-67
2024/03/15 04:42:34;;;;;;;3.67;2.90;;;10.20;99.90;;;;;;5041156;28;20174;-68
2024/03/15 04:45:08;;;;;;;4.00;2.40;;;10.20;99.90;;;;;;5032166;28;20468;-68
2024/03/15 04:47:35;;;;;;;3.13;2.93;;;10.20;99.90;;;;;;5042333;28;20441;-68
2024/03/15 04:50:00;;;;;;;3.30;3.00;;;10.20;99.90;;;;;;5035375;28;20889;-68
2024/03/15 04:52:26;;;;;;;4.83;3.07;;;10.20;99.90;;;;;;5028032;28;20433;-68
2024/03/15 04:54:52;;;;;;;2.77;2.60;;;10.20;99.90;;;;;;5035349;28;20189;-68
2024/03/15 04:57:18;;;;;;;3.10;2.80;;;10.10;99.90;;;;;;5034344;28;20278;-68
2024/03/15 04:59:45;;;;;;;3.70;3.20;;;10.10;99.90;;;;;;5043483;28;20596;-68
2024/03/15 05:02:11;;;;;;;7.70;3.60;;;10.10;99.90;;;;;;5035623;28;20436;-67
2024/03/15 05:04:36;;;;;;;3.60;3.00;;;10.10;99.90;;;;;;5035213;28;20641;-71
2024/03/15 05:07:02;;;;;;;3.40;3.10;;;10.10;99.90;;;;;;5033394;28;20471;-68
2024/03/15 05:09:29;;;;;;;3.00;2.70;;;10.10;99.90;;;;;;5045281;28;20193;-68
2024/03/15 05:11:54;;;;;;;2.83;2.53;;;10.10;99.90;;;;;;5034693;28;20174;-67
2024/03/15 05:14:20;;;;;;;2.57;2.47;;;10.10;99.90;;;;;;5037517;28;20431;-68
2024/03/15 05:16:55;;;;;;;3.10;2.60;;;10.10;99.90;;;;;;5044880;28;20250;-69
2024/03/15 05:19:20;;;;;;;2.90;2.33;;;10.00;99.90;;;;;;5035432;28;20189;-68
2024/03/15 05:21:46;;;;;;;2.80;2.60;;;10.00;99.90;;;;;;5038589;28;20934;-68
2024/03/15 05:24:12;;;;;;;4.10;2.33;;;9.90;99.90;;;;;;5036259;28;20275;-67
2024/03/15 05:26:38;;;;;;;2.57;2.37;;;9.90;99.90;;;;;;5038622;28;20217;-68
2024/03/15 05:29:04;;;;;;;4.10;2.17;;;9.90;99.90;;;;;;5041327;28;20209;-68
2024/03/15 05:31:30;;;;;;;3.23;2.97;;;9.80;99.90;;;;;;5027944;28;20421;-68
2024/03/15 05:33:57;;;;;;;3.70;2.90;;;9.90;99.90;;;;;;5039042;28;20997;-68
2024/03/15 05:36:23;;;;;;;2.77;2.43;;;9.80;99.90;;;;;;5040173;28;20210;-70
2024/03/15 05:38:48;;;;;;;2.73;2.47;;;9.80;99.90;;;;;;5034002;28;20495;-67
2024/03/15 05:41:15;;;;;;;2.57;2.37;;;9.80;99.90;;;;;;5034090;28;20174;-68
2024/03/15 05:43:41;;;;;;;2.70;2.00;;;9.90;99.90;;;;;;5014199;28;20189;-68
2024/03/15 05:46:07;;;;;;;2.97;2.67;;;9.80;99.90;;;;;;5034490;28;20468;-68
2024/03/15 05:48:32;;;;;;;4.67;2.60;;;9.80;99.90;;;;;;5031952;28;20552;-68
2024/03/15 05:50:58;;;;;;;3.47;2.43;;;9.80;99.90;;;;;;5034267;28;20177;-70
2024/03/15 05:53:24;;;;;;;4.43;2.73;;;9.80;99.90;;;;;;5019670;28;20200;-70
2024/03/15 05:55:52;;;;;;;4.23;2.40;;;9.80;99.90;;;;;;5042401;28;20675;-67
2024/03/15 05:58:17;;;;;;;2.67;2.47;;;9.70;99.90;;;;;;5034390;28;20450;-68
2024/03/15 06:00:43;;;;;;;3.80;2.90;;;9.70;99.90;;;;;;5028729;28;20445;-68
2024/03/15 06:03:09;;;;;;;3.20;2.67;;;9.80;99.90;;;;;;5032438;28;20321;-67
2024/03/15 06:05:35;;;;;;;4.57;3.40;;;9.80;99.90;;;;;;5041631;28;20225;-68
2024/03/15 06:08:01;;;;;;;4.53;2.37;;;9.80;99.90;;;;;;5033752;28;20469;-67
2024/03/15 06:10:28;;;;;;;3.40;3.10;;;9.80;99.90;;;;;;5041693;28;20204;-71
2024/03/15 06:12:56;;;;;;;4.83;2.60;;;9.90;99.90;;;;;;5032776;28;20437;-70
2024/03/15 06:15:22;;;;;;;3.13;2.83;;;9.90;99.90;;;;;;5039438;28;20587;-67
2024/03/15 06:17:48;;;;;;;3.70;2.53;;;9.90;99.90;;;;;;5038732;28;20500;-68
2024/03/15 06:20:14;;;;;;;3.43;3.13;;;9.90;99.90;;;;;;5023186;28;20190;-68
2024/03/15 06:22:39;;;;;;;3.33;3.03;;;10.00;99.90;;;;;;5019301;28;20432;-71
2024/03/15 06:25:05;;;;;;;7.80;6.53;;;10.00;99.90;;;;;;5043117;28;20209;-68
2024/03/15 06:27:32;;;;;;;9.57;4.83;;;10.10;99.90;;;;;;5033902;28;20265;-70
2024/03/15 06:29:57;;;;;;;4.53;2.90;;;10.10;99.90;;;;;;5033123;28;20992;-70
2024/03/15 06:32:26;;;;;;;3.37;3.07;;;10.20;99.90;;;;;;5036820;28;20441;-70
2024/03/15 06:35:00;;;;;;;3.60;3.30;;;10.20;99.90;;;;;;5033324;28;20261;-70
2024/03/15 06:37:27;;;;;;;6.03;3.37;;;10.30;99.90;;;;;;5030660;28;20467;-71
2024/03/15 06:42:34;;;;;;;6.33;3.20;;;10.40;99.90;;;;;;5029981;28;20782;-70
2024/03/15 06:45:03;;;;;;;3.40;3.00;;;10.40;99.90;;;;;;5042284;28;20447;-70
2024/03/15 06:47:33;;;;;;;4.40;3.97;;;10.50;99.90;;;;;;5052511;28;20509;-70
2024/03/15 06:52:42;;;;;;;3.37;3.07;;;10.70;99.90;;;;;;5032723;28;20421;-70
2024/03/15 06:55:10;;;;;;;2.50;2.30;;;10.80;99.90;;;;;;5033483;28;20495;-69
2024/03/15 06:57:38;;;;;;;3.67;3.00;;;11.00;99.90;;;;;;5032578;28;20953;-71
2024/03/15 07:00:09;;;;;;;3.60;3.30;;;11.20;99.90;;;;;;5033436;28;20417;-70
2024/03/15 07:02:36;;;;;;;3.47;3.03;;;11.40;99.90;;;;;;5016588;28;20453;-70
2024/03/15 07:05:04;;;;;;;5.33;2.83;;;11.60;99.90;;;;;;4995821;28;20500;-70
2024/03/15 07:07:31;;;;;;;8.53;2.97;;;11.70;99.90;;;;;;5013585;28;20481;-70
2024/03/15 07:09:56;;;;;;;4.87;2.63;;;11.80;99.90;;;;;;5021386;28;20512;-70
2024/03/15 07:12:22;;;;;;;3.10;2.90;;;11.90;99.90;;;;;;5033034;28;20496;-70
2024/03/15 07:14:49;;;;;;;5.23;2.50;;;12.30;99.90;;;;;;5032996;28;20643;-70
2024/03/15 07:17:15;;;;;;;3.77;2.67;;;12.60;99.90;;;;;;5032077;28;20190;-70
2024/03/15 07:19:40;;;;;;;3.00;2.73;;;13.00;99.90;;;;;;5022795;28;20429;-69
2024/03/15 07:22:06;;;;;;;2.87;2.67;;;13.40;99.90;;;;;;5021734;28;20205;-70
2024/03/15 07:24:33;;;;;;;5.70;3.10;;;13.70;99.90;;;;;;5015532;28;20266;-70
2024/03/15 07:26:58;;;;;;;5.20;3.90;;;13.90;99.90;;;;;;5012024;28;20468;-69
2024/03/15 07:29:24;;;;;;;4.13;3.73;;;14.10;99.90;;;;;;5013001;28;20947;-70
2024/03/15 07:31:50;;;;;;;3.00;2.70;;;14.30;99.90;;;;;;5013230;28;20171;-70
2024/03/15 07:34:16;;;;;;;4.70;4.03;;;14.20;99.90;;;;;;5019400;28;20640;-68
2024/03/15 07:36:41;;;;;;;7.20;2.90;;;14.10;99.90;;;;;;5029397;28;20198;-71
2024/03/15 07:39:07;;;;;;;4.90;3.07;;;14.10;99.90;;;;;;5015409;28;20414;-71
2024/03/15 07:41:34;;;;;;;4.43;2.97;;;14.20;99.90;;;;;;5021874;28;20554;-71
2024/03/15 07:44:00;;;;;;;3.10;2.70;;;14.50;99.90;;;;;;5031938;28;20425;-70
2024/03/15 07:46:26;;;;;;;5.87;3.10;;;14.70;99.90;;;;;;5031420;28;20492;-70
2024/03/15 07:48:52;;;;;;;3.73;3.20;;;14.90;99.90;;;;;;5031650;28;20440;-71
2024/03/15 07:51:18;;;;;;;3.53;3.13;;;15.00;99.90;;;;;;5031517;28;20182;-70
2024/03/15 07:53:45;;;;;;;3.60;3.30;;;15.20;99.90;;;;;;5030385;28;20503;-69
2024/03/15 07:56:11;;;;;;;3.60;3.30;;;15.40;99.90;;;;;;5031727;28;20198;-70
2024/03/15 07:58:37;;;;;;;2.90;2.70;;;15.50;99.90;;;;;;5014511;28;20956;-69
2024/03/15 08:01:07;;;;;;;4.87;2.87;;;15.50;99.90;;;;;;5014899;28;20171;-70
2024/03/15 08:03:34;;;;;;;3.60;3.30;;;15.70;99.90;;;;;;5011402;28;20179;-70
2024/03/15 08:06:00;;;;;;;6.73;3.23;;;16.00;99.90;;;;;;5011645;28;20477;-70
2024/03/15 08:08:26;;;;;;;3.03;2.67;;;16.20;99.90;;;;;;5012430;28;20460;-68
2024/03/15 08:10:52;;;;;;;4.07;3.77;;;16.60;99.90;;;;;;5013257;28;20422;-70
2024/03/15 08:13:22;;;;;;;2.83;2.63;;;16.90;99.90;;;;;;5031959;28;20417;-70
2024/03/15 08:15:54;;;;;;;3.57;3.27;;;17.00;99.90;;;;;;5031832;28;20198;-70
2024/03/15 08:18:19;;;;;;;3.83;3.10;;;16.80;99.90;;;;;;5022624;28;20430;-70
2024/03/15 08:20:47;;;;;;;4.50;2.80;;;16.80;99.90;;;;;;5013301;28;20510;-70
2024/03/15 08:23:12;;;;;;;3.40;3.20;;;17.00;99.90;;;;;;5027789;28;20178;-70
2024/03/15 08:25:41;;;;;;;2.97;2.63;;;17.30;99.90;;;;;;5011821;28;20564;-70
2024/03/15 08:28:07;;;;;;;4.90;2.80;;;17.40;99.90;;;;;;5011443;28;20175;-69
2024/03/15 08:30:32;;;;;;;6.43;4.50;;;17.40;99.90;;;;;;5021111;28;20447;-70
2024/03/15 08:32:58;;;;;;;3.70;3.20;;;17.70;99.90;;;;;;5031611;28;20425;-70
2024/03/15 08:35:24;;;;;;;3.47;3.17;;;18.00;99.90;;;;;;5031465;28;20265;-70
2024/03/15 08:37:50;;;;;;;4.17;2.93;;;18.10;99.90;;;;;;5029808;28;20174;-70
2024/03/15 08:40:16;;;;;;;3.20;3.00;;;18.10;99.90;;;;;;5031715;28;20429;-70
2024/03/15 08:42:45;;;;;;;3.93;3.57;;;18.40;99.90;;;;;;5027471;28;20774;-69
2024/03/15 08:45:11;;;;;;;3.33;3.03;;;18.60;99.90;;;;;;5013747;28;20263;-72
2024/03/15 08:47:39;;;;;;;3.73;3.43;;;18.50;99.90;;;;;;5013227;28;20429;-71
2024/03/15 08:50:08;;;;;;;2.73;2.53;;;18.90;99.90;;;;;;5031607;28;20417;-71
2024/03/15 08:52:34;;;;;;;2.60;2.40;;;19.30;99.90;;;;;;5029610;28;20460;-69
2024/03/15 08:54:59;;;;;;;2.70;2.60;;;19.20;99.90;;;;;;5031529;28;20459;-71
2024/03/15 08:57:25;;;;;;;3.00;2.80;;;19.50;99.90;;;;;;5030744;28;20198;-70
2024/03/15 08:59:51;;;;;;;3.43;3.13;;;19.90;99.70;;;;;;5031503;28;20202;-69
2024/03/15 09:02:17;;;;;;;2.60;2.40;;;19.90;99.90;;;;;;5031504;28;20453;-71
2024/03/15 09:04:42;;;;;;;4.87;2.60;;;20.40;99.90;;;;;;5030630;28;20182;-72
2024/03/15 09:07:08;;;;;;;3.80;3.30;;;20.60;97.10;;;;;;5029107;28;20441;-71
2024/03/15 09:09:34;;;;;;;2.40;2.20;;;20.20;97.20;;;;;;5031163;28;20277;-72
2024/03/15 09:11:59;;;;;;;3.63;2.73;;;20.30;97.30;;;;;;5031634;28;20300;-71
2024/03/15 09:14:25;;;;;;;3.10;2.90;;;20.60;97.00;;;;;;5007767;28;20440;-71
2024/03/15 09:16:51;;;;;;;2.60;2.40;;;21.50;95.50;;;;;;5033403;28;20194;-71
2024/03/15 09:19:20;;;;;;;2.33;2.07;;;22.10;92.60;;;;;;5034939;28;20416;-70
2024/03/15 09:21:48;;;;;;;3.73;2.50;;;21.70;91.50;;;;;;5033451;28;20647;-71
2024/03/15 09:24:15;;;;;;;2.80;2.00;;;22.00;91.80;;;;;;5034778;28;20495;-71
2024/03/15 09:26:41;;;;;;;3.90;2.20;;;22.80;88.50;;;;;;5033885;28;21019;-71
2024/03/15 09:29:06;;;;;;;3.20;2.37;;;23.00;84.10;;;;;;5034687;28;20456;-71
2024/03/15 09:31:38;;;;;;;3.20;3.00;;;23.20;81.40;;;;;;5034123;28;20183;-70
2024/03/15 09:34:05;;;;;;;2.47;2.20;;;22.50;81.70;;;;;;5035673;28;20166;-71
2024/03/15 09:36:32;;;;;;;8.03;3.43;;;23.00;82.10;;;;;;5034679;28;20976;-71
2024/03/15 09:38:58;;;;;;;3.17;2.03;;;23.60;78.30;;;;;;5034512;28;20429;-71
2024/03/15 09:41:23;;;;;;;2.63;2.43;;;23.50;75.40;;;;;;5034509;28;20789;-71
2024/03/15 09:43:50;;;;;;;2.17;2.07;;;23.70;74.50;;;;;;5034081;28;20658;-70
2024/03/15 09:46:17;;;;;;;2.97;2.67;;;24.10;71.80;;;;;;5034206;28;20719;-71
2024/03/15 09:48:44;;;;;;;3.20;2.30;;;24.30;67.50;;;;;;5031494;28;20421;-71
2024/03/15 09:51:16;;;;;;;3.60;3.30;;;23.90;69.20;;;;;;5014616;28;20826;-71
2024/03/15 09:53:43;;;;;;;3.80;2.67;;;24.30;69.20;;;;;;5030186;28;20421;-70
2024/03/15 09:56:14;;;;;;;2.50;2.30;;;24.80;65.40;;;;;;5034014;28;20817;-70
2024/03/15 09:58:51;;;;;;;2.60;1.93;;;24.90;62.60;;;;;;5032576;28;20457;-70
2024/03/15 10:01:17;;;;;;;2.20;1.90;;;25.00;61.90;;;;;;5014452;28;20449;-71
2024/03/15 10:03:43;;;;;;;3.03;2.63;;;25.60;59.20;;;;;;5014439;28;20431;-70
2024/03/15 10:06:09;;;;;;;2.67;2.07;;;25.60;57.70;;;;;;5017477;28;20491;-70
2024/03/15 10:08:36;;;;;;;4.50;2.40;;;24.40;58.50;;;;;;5031879;28;20425;-69
2024/03/15 10:11:02;;;;;;;3.13;2.40;;;23.10;61.50;;;;;;5034114;28;20937;-71
2024/03/15 10:13:29;;;;;;;5.07;2.33;;;21.80;67.20;;;;;;5033981;28;20424;-70
2024/03/15 10:15:55;;;;;;;2.67;2.10;;;21.00;75.80;;;;;;5033936;28;20437;-70
2024/03/15 10:18:20;;;;;;;2.33;1.90;;;20.20;79.70;;;;;;5032399;28;20432;-70
2024/03/15 10:20:47;;;;;;;2.20;2.00;;;19.60;86.20;;;;;;5033787;28;20174;-71
2024/03/15 10:23:13;;;;;;;2.13;1.90;;;19.20;90.90;;;;;;5025582;28;20667;-70
2024/03/15 10:25:40;;;;;;;2.90;2.47;;;19.20;91.70;;;;;;5013753;28;20465;-70
2024/03/15 10:28:11;;;;;;;4.07;2.10;;;19.00;93.30;;;;;;5024001;28;20209;-70
2024/03/15 10:30:36;;;;;;;2.00;1.80;;;18.80;94.20;;;;;;5022726;28;20939;-70
2024/03/15 10:33:06;;;;;;;1.90;1.80;;;18.70;94.90;;;;;;5028612;28;20428;-70
2024/03/15 10:35:31;;;;;;;2.07;1.87;;;18.50;94.60;;;;;;5015784;28;20202;-70
2024/03/15 10:37:58;;;;;;;2.00;1.90;;;18.50;96.10;;;;;;5031760;28;20980;-71
2024/03/15 10:40:26;;;;;;;1.87;1.77;;;18.50;97.80;;;;;;5015501;28;20170;-70
2024/03/15 10:43:00;;;;;;;2.30;1.80;;;18.30;99.90;;;;;;5013600;28;20429;-70
2024/03/15 10:45:26;;;;;;;4.50;2.13;;;17.90;99.90;;;;;;5013514;28;20978;-70
2024/03/15 10:47:54;;;;;;;3.70;2.43;;;17.40;99.90;;;;;;5015244;28;20911;-71
2024/03/15 10:50:24;;;;;;;1.97;1.87;;;16.90;99.90;;;;;;5033303;28;20414;-70
2024/03/15 10:52:52;;;;;;;2.80;2.20;;;16.60;99.90;;;;;;5031452;28;20433;-71
2024/03/15 10:55:30;;;;;;;6.70;2.30;;;16.50;99.90;;;;;;5034141;28;20417;-71
2024/03/15 10:58:03;;;;;;;2.20;2.00;;;16.50;99.90;;;;;;5034993;28;20424;-73
2024/03/15 11:00:31;;;;;;;2.77;2.37;;;16.50;99.90;;;;;;5014515;28;20421;-77
2024/03/15 11:03:16;;;;;;;1.90;1.80;;;16.30;99.90;;;;;;5023990;28;20821;-77
2024/03/15 11:05:42;;;;;;;3.00;2.70;;;16.50;99.90;;;;;;5030049;28;20465;-78
2024/03/15 11:08:12;;;;;;;2.50;2.30;;;16.70;99.90;;;;;;5031015;28;20436;-77
2024/03/15 11:10:39;;;;;;;2.90;2.63;;;16.90;99.90;;;;;;5033454;28;20543;-79
2024/03/15 11:13:07;;;;;;;3.40;2.70;;;16.90;99.90;;;;;;5033999;28;20946;-72
2024/03/15 11:15:34;;;;;;;3.10;2.23;;;17.00;99.90;;;;;;5033409;28;20448;-77
2024/03/15 11:18:04;;;;;;;2.57;2.47;;;17.10;99.90;;;;;;5032328;28;20867;-79
2024/03/15 11:20:52;;;;;;;2.60;2.40;;;17.30;99.90;;;;;;5013147;28;20999;-72
2024/03/15 11:23:19;;;;;;;3.10;2.90;;;17.40;99.90;;;;;;5013320;28;20488;-71
2024/03/15 11:25:55;;;;;;;3.17;2.87;;;17.50;99.90;;;;;;5010485;28;20838;-74
2024/03/15 11:28:29;;;;;;;3.70;2.60;;;17.90;99.90;;;;;;4994886;28;20861;-74
2024/03/15 11:30:55;;;;;;;4.70;2.57;;;18.10;99.90;;;;;;5013435;28;20429;-74
2024/03/15 11:33:21;;;;;;;2.47;2.27;;;18.40;99.90;;;;;;5012857;28;20430;-74
2024/03/15 11:35:48;;;;;;;3.30;2.93;;;19.00;99.90;;;;;;5012695;28;20202;-75
2024/03/15 11:38:15;;;;;;;2.40;2.20;;;20.30;99.90;;;;;;5011833;28;20513;-75
2024/03/15 11:40:41;;;;;;;2.97;2.40;;;22.30;96.70;;;;;;5013543;28;20491;-75
2024/03/15 11:43:11;;;;;;;2.10;2.00;;;23.30;90.10;;;;;;5012855;28;20869;-75
2024/03/15 11:45:37;;;;;;;3.77;2.63;;;23.00;84.30;;;;;;5012616;28;20214;-74
2024/03/15 11:48:18;;;;;;;3.23;1.97;;;23.30;83.80;;;;;;5011928;28;20417;-75
2024/03/15 11:50:51;;;;;;;5.23;2.60;;;23.10;83.30;;;;;;5012906;28;20798;-73
2024/03/15 11:53:18;;;;;;;2.13;2.03;;;22.90;79.90;;;;;;5012623;28;20500;-72
2024/03/15 11:55:46;;;;;;;3.10;2.60;;;21.80;83.30;;;;;;5013058;28;20472;-71
2024/03/15 11:58:13;;;;;;;5.60;3.83;;;20.80;89.80;;;;;;5002224;28;20475;-69
2024/03/15 12:00:40;;;;;;;3.13;2.87;;;20.20;92.60;;;;;;5031581;28;20776;-70
2024/03/15 12:03:08;;;;;;;2.80;2.60;;;20.00;93.30;;;;;;5031821;28;20471;-69
2024/03/15 12:05:41;;;;;;;2.50;2.13;;;20.90;92.50;;;;;;5031897;28;20546;-69
2024/03/15 12:08:20;;;;;;;2.40;2.03;;;21.20;88.90;;;;;;5020467;28;20456;-70
2024/03/15 12:10:47;;;;;;;2.60;2.13;;;21.80;85.80;;;;;;5008709;28;20464;-69
2024/03/15 12:13:18;;;;;;;2.87;2.67;;;22.40;82.70;;;;;;5031925;28;20483;-70
2024/03/15 12:15:44;;;;;;;1.80;1.70;;;22.20;78.80;;;;;;5031790;28;20533;-70
2024/03/15 12:18:32;;;;;;;2.90;2.20;;;22.10;79.10;;;;;;5020881;28;20488;-69
2024/03/15 12:20:57;;;;;;;2.30;2.10;;;21.30;80.40;;;;;;5017067;28;20432;-69
2024/03/15 12:23:23;;;;;;;3.10;2.13;;;20.10;85.20;;;;;;5031723;28;20781;-70
2024/03/15 12:25:51;;;;;;;3.07;1.67;;;19.40;90.00;;;;;;5030474;28;20218;-71
2024/03/15 12:28:18;;;;;;;5.90;2.30;;;19.00;91.90;;;;;;5031117;28;20420;-72
2024/03/15 12:30:45;;;;;;;2.50;2.30;;;18.80;93.10;;;;;;5031764;28;20894;-72
2024/03/15 12:33:11;;;;;;;2.07;1.80;;;18.70;94.30;;;;;;5030682;28;20524;-72
2024/03/15 12:35:37;;;;;;;2.07;1.70;;;18.10;94.80;;;;;;5031757;28;20448;-72
2024/03/15 12:38:03;;;;;;;4.00;2.50;;;18.00;96.10;;;;;;5030922;28;20464;-73
2024/03/15 12:40:29;;;;;;;2.03;1.83;;;18.20;96.60;;;;;;5023330;28;20465;-72
2024/03/15 12:42:55;;;;;;;2.00;1.90;;;18.60;96.00;;;;;;5025231;28;20186;-72
2024/03/15 12:45:21;;;;;;;2.37;1.90;;;18.90;95.70;;;;;;5031389;28;20468;-71
2024/03/15 12:47:46;;;;;;;2.60;2.40;;;18.70;94.90;;;;;;5030993;28;20420;-73
2024/03/15 12:50:19;;;;;;;4.53;2.30;;;18.50;95.80;;;;;;5026394;28;20175;-72
2024/03/15 12:52:45;;;;;;;2.60;2.20;;;18.50;96.10;;;;;;5023975;28;20236;-73